Time;durP1;ratioP1;P1;durP2;ratioP2;P2;SDS_P1;SDS_P2;PMS_P1;PMS_P2;Temp;Humidity;BMP_temperature;BMP_pressure;BME280_temperature;BME280_humidity;BME280_pressure;Samples;Min_cycle;Max_cycle;Signal;HPM_P1;HPM_P2
2023/03/06 00:00:49;;;;;;;2.17;0.90;;;2.70;99.90;;;;;;5021256;28;20055;-72
2023/03/06 00:03:15;;;;;;;3.05;0.90;;;2.70;99.90;;;;;;5027812;28;20040;-72
2023/03/06 00:05:41;;;;;;;0.95;0.73;;;2.70;99.90;;;;;;5003593;28;20510;-72
2023/03/06 00:08:07;;;;;;;1.25;0.80;;;2.60;99.90;;;;;;5015433;28;20049;-71
2023/03/06 00:10:33;;;;;;;1.63;0.80;;;2.70;99.90;;;;;;5018912;28;20040;-72
2023/03/06 00:13:02;;;;;;;1.38;0.80;;;2.60;99.90;;;;;;5021899;28;20080;-72
2023/03/06 00:15:28;;;;;;;2.55;1.10;;;2.60;99.90;;;;;;5036169;28;20062;-71
2023/03/06 00:17:54;;;;;;;2.35;0.95;;;2.60;99.90;;;;;;5033262;28;21577;-72
2023/03/06 00:20:23;;;;;;;2.50;1.20;;;2.60;99.90;;;;;;4998052;28;20055;-72
2023/03/06 00:22:50;;;;;;;2.90;1.05;;;2.50;99.90;;;;;;5028960;28;20126;-72
2023/03/06 00:25:18;;;;;;;3.08;1.10;;;2.50;99.90;;;;;;4997704;28;20045;-72
2023/03/06 00:27:44;;;;;;;2.38;1.00;;;2.50;99.90;;;;;;5032985;28;20040;-72
2023/03/06 00:30:13;;;;;;;1.30;0.85;;;2.40;99.90;;;;;;5013280;28;20040;-72
2023/03/06 00:32:38;;;;;;;2.55;0.90;;;2.40;99.90;;;;;;5027658;28;20044;-71
2023/03/06 00:35:05;;;;;;;1.38;0.90;;;2.40;99.90;;;;;;5024801;28;20048;-72
2023/03/06 00:37:31;;;;;;;1.90;1.20;;;2.40;99.90;;;;;;5029896;28;20494;-72
2023/03/06 00:39:57;;;;;;;1.95;0.85;;;2.40;99.90;;;;;;5043051;28;20048;-72
2023/03/06 00:42:22;;;;;;;1.67;0.80;;;2.40;99.90;;;;;;5033595;28;20475;-72
2023/03/06 00:44:48;;;;;;;2.35;1.13;;;2.40;99.90;;;;;;5016394;28;20075;-71
2023/03/06 00:47:16;;;;;;;2.45;0.93;;;2.40;99.90;;;;;;5027827;28;20123;-72
2023/03/06 00:49:43;;;;;;;1.25;1.10;;;2.40;99.90;;;;;;5014217;28;20071;-73
2023/03/06 00:52:09;;;;;;;3.13;1.13;;;2.40;99.90;;;;;;5031141;28;20059;-71
2023/03/06 00:54:35;;;;;;;1.65;0.90;;;2.40;99.90;;;;;;5029104;28;20048;-72
2023/03/06 00:57:01;;;;;;;2.08;1.00;;;2.40;99.90;;;;;;5023635;28;20048;-71
2023/03/06 00:59:27;;;;;;;1.73;1.00;;;2.40;99.90;;;;;;5046007;28;20071;-71
2023/03/06 01:01:53;;;;;;;1.80;1.05;;;2.40;99.90;;;;;;5014295;28;20044;-72
2023/03/06 01:04:20;;;;;;;2.78;1.10;;;2.40;99.90;;;;;;5031929;28;20044;-72
2023/03/06 01:06:45;;;;;;;5.97;1.40;;;2.30;99.90;;;;;;5030732;28;20067;-72
2023/03/06 01:09:11;;;;;;;2.28;1.25;;;2.40;99.90;;;;;;5028369;28;20055;-72
2023/03/06 01:11:37;;;;;;;3.15;1.40;;;2.40;99.90;;;;;;5024035;28;20044;-72
2023/03/06 01:14:03;;;;;;;1.75;1.05;;;2.40;99.90;;;;;;5015667;28;20051;-71
2023/03/06 01:16:29;;;;;;;3.33;1.40;;;2.30;99.90;;;;;;5008669;28;20079;-72
2023/03/06 01:18:55;;;;;;;3.17;1.30;;;2.30;99.90;;;;;;5026817;28;20060;-71
2023/03/06 01:21:22;;;;;;;4.65;1.45;;;2.30;99.90;;;;;;5045527;28;20040;-72
2023/03/06 01:23:48;;;;;;;3.88;1.05;;;2.30;99.90;;;;;;5039511;28;20795;-71
2023/03/06 01:26:14;;;;;;;2.97;1.33;;;2.30;99.90;;;;;;5045238;28;20110;-72
2023/03/06 01:28:40;;;;;;;1.60;1.17;;;2.30;99.90;;;;;;5013444;28;20057;-72
2023/03/06 01:31:07;;;;;;;2.17;1.27;;;2.30;99.90;;;;;;5045211;28;20075;-71
2023/03/06 01:33:33;;;;;;;2.92;1.25;;;2.40;99.90;;;;;;5025798;28;20356;-71
2023/03/06 01:35:59;;;;;;;2.05;1.48;;;2.40;99.90;;;;;;5055307;28;20052;-71
2023/03/06 01:38:25;;;;;;;4.07;1.48;;;2.40;99.90;;;;;;5025018;28;20529;-72
2023/03/06 01:40:51;;;;;;;2.22;1.30;;;2.40;99.90;;;;;;5025358;28;20049;-71
2023/03/06 01:43:27;;;;;;;4.47;1.42;;;2.40;99.90;;;;;;5042863;28;20107;-72
2023/03/06 01:46:11;;;;;;;4.53;1.27;;;2.40;99.90;;;;;;5049356;28;21235;-71
2023/03/06 01:48:37;;;;;;;3.83;1.50;;;2.40;99.90;;;;;;5023848;28;20040;-71
2023/03/06 01:51:04;;;;;;;3.30;1.40;;;2.30;99.90;;;;;;5029279;28;20062;-72
2023/03/06 01:53:30;;;;;;;4.25;1.45;;;2.40;99.90;;;;;;5040152;28;20103;-72
2023/03/06 01:55:56;;;;;;;2.28;1.30;;;2.50;99.90;;;;;;5043617;28;20099;-72
2023/03/06 01:58:22;;;;;;;0.73;0.73;;;2.40;99.90;;;;;;5026995;28;20052;-72
2023/03/06 02:00:48;;;;;;;1.15;1.05;;;2.40;99.90;;;;;;5011186;28;20048;-74
2023/03/06 02:03:21;;;;;;;1.88;1.20;;;2.50;99.90;;;;;;5047485;28;20924;-72
2023/03/06 02:05:47;;;;;;;1.55;1.25;;;2.30;99.90;;;;;;5039152;28;20044;-71
2023/03/06 02:08:17;;;;;;;1.50;1.10;;;2.30;99.90;;;;;;5040118;28;20052;-74
2023/03/06 02:10:57;;;;;;;1.17;1.02;;;2.20;99.90;;;;;;5041847;28;20059;-71
2023/03/06 02:13:23;;;;;;;1.15;0.93;;;2.20;99.90;;;;;;5046576;28;20415;-71
2023/03/06 02:15:49;;;;;;;1.77;1.00;;;2.20;99.90;;;;;;5029555;28;20374;-71
2023/03/06 02:18:15;;;;;;;1.10;1.00;;;2.10;99.90;;;;;;5026998;28;20048;-73
2023/03/06 02:20:50;;;;;;;2.42;1.00;;;2.00;99.90;;;;;;4989776;28;20056;-74
2023/03/06 02:23:37;;;;;;;1.25;1.10;;;2.00;99.90;;;;;;5040286;28;20048;-71
2023/03/06 02:26:05;;;;;;;1.73;1.05;;;1.90;99.90;;;;;;5044541;28;20044;-74
2023/03/06 02:28:31;;;;;;;2.25;1.10;;;1.90;99.90;;;;;;5040984;28;20048;-74
2023/03/06 02:30:57;;;;;;;2.40;1.20;;;1.90;99.90;;;;;;5023994;28;20055;-74
2023/03/06 02:33:25;;;;;;;0.90;0.90;;;1.90;99.90;;;;;;5046696;28;20076;-71
2023/03/06 02:35:51;;;;;;;1.35;0.98;;;1.80;99.90;;;;;;5029376;28;20124;-74
2023/03/06 02:38:20;;;;;;;1.38;0.80;;;1.80;99.90;;;;;;5040940;28;20040;-71
2023/03/06 02:40:48;;;;;;;1.40;1.10;;;1.80;99.90;;;;;;5041920;28;20095;-71
2023/03/06 02:43:19;;;;;;;1.80;1.00;;;1.80;99.90;;;;;;5036915;28;20468;-70
2023/03/06 02:45:47;;;;;;;1.20;1.10;;;1.80;99.90;;;;;;5045386;28;20046;-72
2023/03/06 02:48:14;;;;;;;1.42;1.00;;;1.80;99.90;;;;;;5048722;28;20053;-72
2023/03/06 02:50:41;;;;;;;1.15;1.02;;;1.80;99.90;;;;;;5045408;28;20052;-72
2023/03/06 02:53:08;;;;;;;0.80;0.80;;;1.80;99.90;;;;;;5046864;28;20043;-72
2023/03/06 02:55:35;;;;;;;0.80;0.80;;;1.80;99.90;;;;;;5045601;28;20048;-72
2023/03/06 02:58:01;;;;;;;1.25;1.10;;;1.80;99.90;;;;;;5032880;28;20052;-73
2023/03/06 03:00:27;;;;;;;2.28;0.90;;;1.80;99.90;;;;;;5046779;28;20049;-72
2023/03/06 03:02:53;;;;;;;1.48;1.10;;;1.80;99.90;;;;;;5046542;28;20061;-72
2023/03/06 03:05:19;;;;;;;1.45;0.90;;;1.90;99.90;;;;;;5042305;28;20040;-72
2023/03/06 03:07:45;;;;;;;2.22;1.02;;;1.80;99.90;;;;;;5043323;28;20387;-73
2023/03/06 03:10:11;;;;;;;1.88;0.90;;;1.90;99.90;;;;;;5050747;28;20051;-72
2023/03/06 03:12:38;;;;;;;2.45;1.00;;;1.90;99.90;;;;;;5063794;28;20113;-73
2023/03/06 03:15:04;;;;;;;1.08;0.90;;;1.90;99.90;;;;;;5052600;28;20036;-73
2023/03/06 03:17:30;;;;;;;0.98;0.90;;;1.90;99.90;;;;;;5052962;28;20776;-72
2023/03/06 03:19:56;;;;;;;1.38;1.00;;;1.90;99.90;;;;;;5044956;28;20142;-72
2023/03/06 03:22:22;;;;;;;1.25;1.00;;;1.90;99.90;;;;;;5041336;28;20048;-73
2023/03/06 03:24:47;;;;;;;1.27;1.05;;;1.90;99.90;;;;;;5030411;28;20427;-72
2023/03/06 03:27:14;;;;;;;1.83;1.33;;;1.80;99.90;;;;;;5003375;28;20036;-73
2023/03/06 03:29:40;;;;;;;1.75;1.45;;;1.80;99.90;;;;;;5016644;28;20496;-71
2023/03/06 03:32:06;;;;;;;1.65;1.10;;;1.80;99.90;;;;;;5012428;28;20052;-71
2023/03/06 03:34:32;;;;;;;1.50;0.90;;;1.80;99.90;;;;;;5032648;28;20040;-71
2023/03/06 03:36:58;;;;;;;1.63;0.93;;;1.90;99.90;;;;;;5005121;28;20106;-71
2023/03/06 03:39:24;;;;;;;2.45;1.00;;;1.70;99.90;;;;;;5002287;28;20049;-72
2023/03/06 03:41:50;;;;;;;1.10;1.00;;;1.70;99.90;;;;;;5030323;28;20067;-71
2023/03/06 03:44:15;;;;;;;0.90;0.90;;;1.70;99.90;;;;;;5018699;28;20411;-72
2023/03/06 03:46:42;;;;;;;4.25;0.90;;;1.70;99.90;;;;;;5016236;28;20041;-71
2023/03/06 03:49:08;;;;;;;1.58;1.00;;;1.70;99.90;;;;;;5016220;28;20489;-71
2023/03/06 03:51:34;;;;;;;2.58;1.00;;;1.60;99.90;;;;;;5001718;28;20050;-71
2023/03/06 03:54:00;;;;;;;1.27;0.90;;;1.70;99.90;;;;;;5020763;28;20075;-72
2023/03/06 03:56:26;;;;;;;3.25;1.25;;;1.60;99.90;;;;;;4999320;28;20527;-71
2023/03/06 03:58:52;;;;;;;1.33;0.90;;;1.60;99.90;;;;;;5017377;28;20080;-72
2023/03/06 04:01:18;;;;;;;3.92;1.10;;;1.60;99.90;;;;;;5017119;28;20040;-72
2023/03/06 04:03:44;;;;;;;1.73;1.50;;;1.60;99.90;;;;;;5019516;28;20112;-71
2023/03/06 04:06:09;;;;;;;1.00;0.93;;;1.60;99.90;;;;;;5005483;28;20050;-71
2023/03/06 04:08:35;;;;;;;1.42;1.02;;;1.50;99.90;;;;;;5024195;28;20048;-72
2023/03/06 04:11:02;;;;;;;1.55;1.00;;;1.50;99.90;;;;;;5025256;28;20082;-71
2023/03/06 04:13:28;;;;;;;2.42;1.00;;;1.60;99.90;;;;;;5013888;28;20043;-72
2023/03/06 04:15:54;;;;;;;2.25;1.20;;;1.60;99.90;;;;;;5026587;28;21285;-71
2023/03/06 04:18:21;;;;;;;2.90;1.00;;;1.50;99.90;;;;;;5024345;28;20045;-71
2023/03/06 04:20:48;;;;;;;1.88;1.20;;;1.50;99.90;;;;;;5048241;28;20083;-71
2023/03/06 04:23:15;;;;;;;1.85;1.25;;;1.50;99.90;;;;;;5030991;28;20465;-71
2023/03/06 04:25:41;;;;;;;2.40;1.27;;;1.50;99.90;;;;;;5046389;28;20044;-71
2023/03/06 04:28:07;;;;;;;2.08;1.08;;;1.50;99.90;;;;;;5035133;28;20047;-71
2023/03/06 04:30:33;;;;;;;2.35;1.15;;;1.50;99.90;;;;;;5030336;28;20047;-71
2023/03/06 04:32:59;;;;;;;3.70;1.30;;;1.50;99.90;;;;;;5024475;28;20378;-71
2023/03/06 04:35:25;;;;;;;1.55;1.30;;;1.50;99.90;;;;;;5049667;28;20161;-71
2023/03/06 04:37:51;;;;;;;1.63;1.23;;;1.50;99.90;;;;;;5053729;28;20052;-71
2023/03/06 04:40:27;;;;;;;1.67;1.10;;;1.50;99.90;;;;;;5053719;28;20086;-71
2023/03/06 04:42:56;;;;;;;2.85;1.45;;;1.50;99.90;;;;;;5047927;28;21868;-71
2023/03/06 04:45:23;;;;;;;2.28;1.50;;;1.50;99.90;;;;;;5050930;28;21032;-71
2023/03/06 04:47:48;;;;;;;1.88;1.45;;;1.60;99.90;;;;;;5051593;28;20054;-71
2023/03/06 04:50:15;;;;;;;2.40;1.58;;;1.50;99.90;;;;;;5032310;28;20059;-71
2023/03/06 04:52:41;;;;;;;2.22;1.35;;;1.70;99.90;;;;;;5052046;28;20050;-71
2023/03/06 04:55:10;;;;;;;3.38;1.40;;;1.50;99.90;;;;;;5048636;28;20085;-71
2023/03/06 04:57:40;;;;;;;1.30;1.20;;;1.50;99.90;;;;;;5026270;28;20048;-71
2023/03/06 05:00:21;;;;;;;1.83;1.30;;;1.50;99.90;;;;;;5017385;28;20130;-71
2023/03/06 05:02:48;;;;;;;1.58;1.27;;;1.50;99.90;;;;;;5039584;28;20168;-71
2023/03/06 05:05:15;;;;;;;3.75;1.40;;;1.40;99.90;;;;;;5047730;28;20487;-71
2023/03/06 05:07:41;;;;;;;2.00;1.38;;;1.50;99.90;;;;;;5032676;28;20046;-71
2023/03/06 05:10:11;;;;;;;1.90;1.58;;;1.50;99.90;;;;;;5047194;28;22208;-71
2023/03/06 05:12:38;;;;;;;1.50;1.40;;;1.40;99.90;;;;;;5052611;28;20058;-71
2023/03/06 05:15:05;;;;;;;2.30;1.60;;;1.50;99.90;;;;;;5052691;28;20050;-71
2023/03/06 05:17:31;;;;;;;3.08;1.40;;;1.40;99.90;;;;;;5032168;28;20053;-71
2023/03/06 05:19:57;;;;;;;2.50;1.55;;;1.40;99.90;;;;;;5052950;28;20106;-71
2023/03/06 05:22:23;;;;;;;3.40;1.80;;;1.40;99.90;;;;;;5020642;28;20503;-71
2023/03/06 05:24:48;;;;;;;2.58;1.63;;;1.40;99.90;;;;;;5039344;28;20067;-71
2023/03/06 05:27:14;;;;;;;3.72;1.88;;;1.40;99.90;;;;;;5017299;28;20040;-71
2023/03/06 05:29:40;;;;;;;3.33;1.90;;;1.40;99.90;;;;;;5018562;28;20052;-71
2023/03/06 05:32:06;;;;;;;3.17;2.13;;;1.40;99.90;;;;;;5038828;28;20067;-71
2023/03/06 05:34:32;;;;;;;4.47;2.40;;;1.40;99.90;;;;;;5054395;28;20039;-71
2023/03/06 05:37:00;;;;;;;3.92;2.28;;;1.40;99.90;;;;;;5057971;28;20067;-72
2023/03/06 05:39:27;;;;;;;5.30;2.50;;;1.40;99.90;;;;;;5032241;28;20145;-72
2023/03/06 05:41:53;;;;;;;3.55;2.28;;;1.40;99.90;;;;;;5021476;28;20044;-72
2023/03/06 05:44:18;;;;;;;2.75;2.22;;;1.40;99.90;;;;;;5053049;28;20055;-72
2023/03/06 05:46:44;;;;;;;4.10;2.30;;;1.30;99.90;;;;;;5052429;28;20046;-71
2023/03/06 05:49:10;;;;;;;3.53;2.30;;;1.50;99.90;;;;;;5015775;28;20048;-71
2023/03/06 05:51:36;;;;;;;3.70;2.10;;;1.30;99.90;;;;;;5041807;28;20472;-71
2023/03/06 05:54:02;;;;;;;4.15;2.58;;;1.30;99.90;;;;;;5047639;28;20059;-72
2023/03/06 05:56:27;;;;;;;5.43;2.60;;;1.30;99.90;;;;;;5027843;28;20508;-72
2023/03/06 05:58:53;;;;;;;3.35;2.40;;;1.30;99.90;;;;;;5031745;28;20047;-71
2023/03/06 06:01:20;;;;;;;4.18;2.50;;;1.40;99.90;;;;;;5047711;28;20043;-72
2023/03/06 06:03:47;;;;;;;2.67;2.38;;;1.30;99.90;;;;;;5026866;28;20047;-71
2023/03/06 06:06:14;;;;;;;3.22;2.38;;;1.30;99.90;;;;;;5030399;28;20052;-72
2023/03/06 06:08:40;;;;;;;3.63;2.72;;;1.20;99.90;;;;;;5032178;28;20058;-71
2023/03/06 06:11:08;;;;;;;3.20;2.63;;;1.20;99.90;;;;;;5028899;28;20152;-71
2023/03/06 06:13:35;;;;;;;5.90;3.58;;;1.20;99.90;;;;;;5010699;28;20051;-72
2023/03/06 06:16:10;;;;;;;5.35;3.10;;;1.20;99.90;;;;;;5036406;28;20733;-71
2023/03/06 06:18:37;;;;;;;3.33;2.88;;;1.10;99.90;;;;;;5043095;28;20129;-72
2023/03/06 06:21:04;;;;;;;4.95;3.38;;;1.10;99.90;;;;;;5049257;28;20132;-72
2023/03/06 06:23:30;;;;;;;5.13;3.05;;;1.10;99.90;;;;;;5046990;28;20044;-72
2023/03/06 06:26:02;;;;;;;5.88;3.30;;;1.10;99.90;;;;;;5007679;28;20079;-72
2023/03/06 06:28:28;;;;;;;4.50;3.25;;;1.00;99.90;;;;;;5027020;28;20059;-72
2023/03/06 06:30:55;;;;;;;4.65;3.13;;;1.00;99.90;;;;;;5047748;28;20051;-72
2023/03/06 06:33:20;;;;;;;4.00;3.20;;;0.90;99.90;;;;;;5023817;28;20048;-71
2023/03/06 06:35:46;;;;;;;5.13;2.90;;;0.90;99.90;;;;;;5046150;28;20052;-72
2023/03/06 06:38:12;;;;;;;4.60;3.20;;;0.90;99.90;;;;;;5047393;28;21781;-72
2023/03/06 06:40:38;;;;;;;3.38;3.00;;;0.90;99.90;;;;;;5043453;28;21043;-72
2023/03/06 06:43:03;;;;;;;3.67;2.75;;;0.90;99.90;;;;;;5048159;28;20039;-72
2023/03/06 06:45:29;;;;;;;3.50;2.83;;;0.80;99.90;;;;;;5026421;28;20040;-72
2023/03/06 06:47:55;;;;;;;4.93;3.25;;;0.80;99.90;;;;;;5026926;28;20163;-71
2023/03/06 06:50:21;;;;;;;5.30;3.33;;;0.80;99.90;;;;;;5040745;28;20052;-71
2023/03/06 06:52:46;;;;;;;4.93;3.03;;;0.70;99.90;;;;;;5055055;28;20036;-72
2023/03/06 06:55:12;;;;;;;3.85;2.90;;;0.70;99.90;;;;;;5055450;28;20657;-72
2023/03/06 06:57:39;;;;;;;3.20;2.72;;;0.70;99.90;;;;;;5051702;28;20051;-72
2023/03/06 07:00:06;;;;;;;3.20;2.33;;;0.70;99.90;;;;;;5049921;28;20048;-71
2023/03/06 07:02:32;;;;;;;2.95;2.47;;;0.70;99.90;;;;;;5030545;28;20122;-72
2023/03/06 07:04:58;;;;;;;3.72;2.40;;;0.70;99.90;;;;;;5025633;28;20047;-72
2023/03/06 07:07:24;;;;;;;4.07;2.40;;;0.60;99.90;;;;;;5050385;28;21160;-71
2023/03/06 07:09:50;;;;;;;3.03;1.92;;;0.60;99.90;;;;;;5046642;28;20469;-72
2023/03/06 07:12:16;;;;;;;3.08;2.35;;;0.60;99.90;;;;;;5036541;28;20059;-71
2023/03/06 07:14:42;;;;;;;2.78;2.58;;;0.60;99.90;;;;;;5039302;28;20466;-71
2023/03/06 07:17:08;;;;;;;4.18;2.60;;;0.60;99.90;;;;;;5042740;28;20056;-72
2023/03/06 07:19:35;;;;;;;3.40;2.35;;;0.60;99.90;;;;;;5047280;28;20055;-72
2023/03/06 07:22:01;;;;;;;2.65;2.42;;;0.60;99.90;;;;;;5056195;28;20047;-72
2023/03/06 07:24:27;;;;;;;4.25;2.63;;;0.60;99.90;;;;;;5032034;28;20055;-71
2023/03/06 07:26:53;;;;;;;2.90;2.55;;;0.70;99.90;;;;;;5036624;28;20048;-72
2023/03/06 07:29:19;;;;;;;4.35;2.92;;;0.70;99.90;;;;;;5055209;28;20490;-71
2023/03/06 07:31:46;;;;;;;3.42;2.75;;;0.70;99.90;;;;;;5029718;28;20173;-72
2023/03/06 07:34:13;;;;;;;3.83;2.33;;;0.70;99.90;;;;;;5035565;28;20043;-72
2023/03/06 07:36:39;;;;;;;3.63;2.80;;;0.70;99.90;;;;;;5043756;28;20054;-72
2023/03/06 07:39:06;;;;;;;2.63;2.42;;;0.80;99.90;;;;;;5049626;28;20048;-71
2023/03/06 07:41:32;;;;;;;4.13;2.97;;;0.80;99.90;;;;;;5055261;28;20114;-72
2023/03/06 07:43:58;;;;;;;5.53;2.60;;;0.80;99.90;;;;;;5037633;28;20054;-72
2023/03/06 07:46:24;;;;;;;3.78;2.80;;;0.90;99.90;;;;;;5038402;28;20085;-72
2023/03/06 07:48:50;;;;;;;3.17;2.78;;;0.90;99.90;;;;;;5048942;28;20062;-72
2023/03/06 07:51:19;;;;;;;3.65;3.25;;;1.00;99.90;;;;;;5034909;28;20052;-71
2023/03/06 07:53:44;;;;;;;6.68;3.58;;;1.00;99.90;;;;;;5051500;28;20059;-71
2023/03/06 07:56:11;;;;;;;6.40;3.60;;;1.00;99.90;;;;;;5032688;28;20491;-72
2023/03/06 07:58:38;;;;;;;4.28;3.60;;;1.10;99.90;;;;;;5042060;28;20140;-72
2023/03/06 08:01:13;;;;;;;4.47;3.70;;;1.20;99.90;;;;;;5042126;28;20155;-72
2023/03/06 08:03:39;;;;;;;5.25;3.95;;;1.20;99.90;;;;;;5032567;28;20067;-72
2023/03/06 08:06:08;;;;;;;6.45;3.75;;;1.30;99.90;;;;;;5049033;28;20059;-72
2023/03/06 08:08:35;;;;;;;6.28;3.70;;;1.40;99.90;;;;;;5042676;28;20095;-72
2023/03/06 08:11:01;;;;;;;5.28;4.10;;;1.50;99.90;;;;;;5059581;28;20039;-72
2023/03/06 08:13:27;;;;;;;3.50;3.17;;;1.60;99.90;;;;;;5064550;28;20040;-71
2023/03/06 08:15:53;;;;;;;4.60;3.50;;;1.70;99.90;;;;;;5058554;28;20106;-71
2023/03/06 08:18:19;;;;;;;7.88;3.53;;;1.70;99.90;;;;;;5030021;28;20058;-72
2023/03/06 08:20:45;;;;;;;6.28;3.47;;;1.70;99.90;;;;;;5053553;28;20084;-71
2023/03/06 08:23:11;;;;;;;4.93;3.33;;;1.80;99.90;;;;;;5034838;28;20089;-72
2023/03/06 08:25:36;;;;;;;6.40;2.65;;;1.80;99.90;;;;;;5050307;28;20421;-71
2023/03/06 08:28:02;;;;;;;4.43;3.20;;;1.80;99.90;;;;;;5016924;28;20548;-72
2023/03/06 08:30:29;;;;;;;3.88;3.03;;;1.80;99.90;;;;;;5030636;28;20174;-72
2023/03/06 08:32:54;;;;;;;4.15;2.85;;;1.80;99.90;;;;;;5063101;28;20172;-72
2023/03/06 08:35:20;;;;;;;5.05;3.00;;;1.80;99.90;;;;;;5057119;28;20435;-71
2023/03/06 08:37:46;;;;;;;4.10;2.88;;;1.90;99.90;;;;;;5017540;28;20055;-71
2023/03/06 08:40:12;;;;;;;4.30;2.70;;;1.90;99.90;;;;;;5033440;28;20044;-71
2023/03/06 08:42:38;;;;;;;4.55;2.95;;;2.00;99.90;;;;;;5037755;28;20444;-72
2023/03/06 08:45:05;;;;;;;7.80;3.40;;;2.10;99.90;;;;;;5061427;28;20076;-72
2023/03/06 08:47:33;;;;;;;4.95;2.90;;;2.20;99.90;;;;;;5041543;28;22115;-71
2023/03/06 08:49:59;;;;;;;5.05;3.35;;;2.40;99.90;;;;;;5034271;28;20659;-71
2023/03/06 08:52:25;;;;;;;4.28;2.60;;;2.50;99.90;;;;;;5060818;28;20044;-71
2023/03/06 08:54:50;;;;;;;4.00;2.55;;;2.60;99.90;;;;;;5033885;28;20056;-72
2023/03/06 08:57:16;;;;;;;6.00;2.72;;;2.80;99.90;;;;;;5030143;28;20817;-71
2023/03/06 08:59:42;;;;;;;6.40;2.58;;;2.90;99.90;;;;;;5050926;28;20105;-72
2023/03/06 09:02:12;;;;;;;3.55;2.05;;;3.10;99.90;;;;;;5048576;28;20086;-71
2023/03/06 09:04:37;;;;;;;4.35;2.40;;;3.10;99.90;;;;;;5047871;28;20039;-71
2023/03/06 09:07:03;;;;;;;4.80;2.33;;;3.20;99.90;;;;;;5054012;28;20068;-71
2023/03/06 09:09:29;;;;;;;5.45;2.60;;;3.40;99.90;;;;;;5048284;28;20059;-71
2023/03/06 09:11:55;;;;;;;6.35;2.13;;;3.60;99.90;;;;;;5039575;28;20044;-72
2023/03/06 09:14:21;;;;;;;5.07;2.65;;;3.70;99.90;;;;;;5026171;28;20054;-71
2023/03/06 09:16:46;;;;;;;4.45;2.08;;;3.80;99.90;;;;;;5036714;28;20044;-72
2023/03/06 09:19:12;;;;;;;4.80;1.80;;;3.90;99.90;;;;;;5052542;28;20447;-72
2023/03/06 09:21:38;;;;;;;3.58;2.08;;;4.00;99.90;;;;;;5033920;28;20048;-72
2023/03/06 09:24:04;;;;;;;3.75;1.80;;;4.10;99.90;;;;;;5036000;28;20040;-72
2023/03/06 09:26:30;;;;;;;3.63;2.00;;;4.20;99.90;;;;;;5061112;28;20035;-72
2023/03/06 09:28:56;;;;;;;3.67;1.70;;;4.30;99.90;;;;;;5036449;28;20462;-72
2023/03/06 09:31:21;;;;;;;4.20;1.52;;;4.40;99.90;;;;;;5035316;28;20146;-72
2023/03/06 09:33:47;;;;;;;3.40;1.55;;;4.40;99.90;;;;;;5035504;28;20075;-72
2023/03/06 09:36:22;;;;;;;6.60;1.40;;;4.50;99.90;;;;;;5037855;28;20070;-72
2023/03/06 09:38:49;;;;;;;2.70;1.30;;;4.50;99.90;;;;;;5042663;28;20055;-72
2023/03/06 09:41:26;;;;;;;5.07;1.80;;;4.70;99.90;;;;;;5055323;28;20048;-72
2023/03/06 09:43:57;;;;;;;1.83;1.25;;;4.80;99.90;;;;;;5032816;28;20055;-72
2023/03/06 09:46:29;;;;;;;6.75;1.40;;;4.90;99.90;;;;;;5033525;28;20036;-72
2023/03/06 09:49:09;;;;;;;2.97;1.30;;;5.00;99.90;;;;;;5034072;28;20120;-72
2023/03/06 09:52:08;;;;;;;5.35;1.10;;;5.10;99.90;;;;;;5028536;28;21018;-72
2023/03/06 09:54:40;;;;;;;6.40;1.20;;;5.20;99.90;;;;;;5041094;28;20631;-72
2023/03/06 09:57:25;;;;;;;2.80;0.88;;;5.30;99.90;;;;;;5053531;28;20048;-72
2023/03/06 09:59:56;;;;;;;7.40;1.13;;;5.40;99.90;;;;;;5050712;28;20039;-72
2023/03/06 10:02:38;;;;;;;2.88;0.98;;;5.40;99.90;;;;;;5034372;28;20101;-72
2023/03/06 10:05:09;;;;;;;2.47;0.80;;;5.50;99.90;;;;;;5025609;28;20052;-73
2023/03/06 10:07:42;;;;;;;5.15;1.00;;;5.50;99.90;;;;;;5050947;28;20499;-74
2023/03/06 10:10:34;;;;;;;2.03;0.82;;;5.50;99.90;;;;;;5049410;28;20048;-73
2023/03/06 10:13:00;;;;;;;3.22;1.65;;;5.60;99.90;;;;;;5033095;28;20530;-74
2023/03/06 10:15:33;;;;;;;1.95;0.80;;;5.80;99.90;;;;;;5048864;28;20047;-71
2023/03/06 10:18:00;;;;;;;2.88;0.93;;;5.90;99.90;;;;;;5031273;28;20127;-71
2023/03/06 10:20:48;;;;;;;2.20;0.70;;;6.10;99.90;;;;;;5034242;28;20063;-71
2023/03/06 10:23:23;;;;;;;3.92;1.10;;;6.30;99.90;;;;;;5054871;28;20059;-71
2023/03/06 10:26:00;;;;;;;5.90;1.60;;;6.50;99.90;;;;;;5044878;28;20067;-71
2023/03/06 10:28:38;;;;;;;4.70;0.93;;;6.70;99.90;;;;;;5051751;28;20039;-71
2023/03/06 10:31:10;;;;;;;2.88;0.80;;;6.80;99.90;;;;;;5034795;28;20127;-71
2023/03/06 10:34:19;;;;;;;4.55;0.80;;;6.90;99.90;;;;;;5048742;28;20044;-71
2023/03/06 10:36:45;;;;;;;3.72;0.93;;;6.90;99.90;;;;;;5029357;28;20055;-71
2023/03/06 10:39:16;;;;;;;1.15;0.70;;;7.00;99.90;;;;;;5051040;28;27025;-71
2023/03/06 10:41:44;;;;;;;3.42;0.93;;;7.10;99.90;;;;;;5031735;28;20052;-71
2023/03/06 10:44:12;;;;;;;3.25;0.85;;;7.30;99.90;;;;;;5048273;28;20047;-71
2023/03/06 10:46:44;;;;;;;1.77;0.80;;;7.40;99.90;;;;;;5050808;28;20040;-71
2023/03/06 10:49:23;;;;;;;6.43;1.10;;;7.60;99.90;;;;;;5048124;28;20135;-71
2023/03/06 10:52:09;;;;;;;3.22;1.00;;;7.70;99.90;;;;;;5049296;28;20047;-71
2023/03/06 10:54:37;;;;;;;1.88;0.88;;;7.90;99.90;;;;;;5036612;28;20077;-71
2023/03/06 10:57:23;;;;;;;1.92;0.88;;;7.90;99.90;;;;;;5051491;28;20048;-73
2023/03/06 10:59:54;;;;;;;3.50;0.93;;;8.00;99.90;;;;;;5034303;28;20997;-73
2023/03/06 11:02:36;;;;;;;2.85;1.00;;;8.00;99.90;;;;;;5037780;28;20073;-73
2023/03/06 11:05:03;;;;;;;6.15;1.05;;;7.90;99.90;;;;;;5048572;28;20051;-71
2023/03/06 11:07:34;;;;;;;2.85;0.90;;;7.70;99.90;;;;;;5032848;28;20242;-71
2023/03/06 11:10:04;;;;;;;2.25;0.90;;;7.60;99.90;;;;;;5066294;28;20052;-71
2023/03/06 11:12:40;;;;;;;4.78;0.75;;;7.50;99.90;;;;;;5032561;28;20100;-71
2023/03/06 11:15:23;;;;;;;1.42;0.70;;;7.50;99.90;;;;;;5035276;28;20047;-71
2023/03/06 11:18:00;;;;;;;4.43;0.80;;;7.90;99.90;;;;;;5034034;28;20909;-71
2023/03/06 11:20:31;;;;;;;5.63;1.00;;;8.10;99.90;;;;;;5056404;28;20056;-71
2023/03/06 11:23:14;;;;;;;3.10;0.77;;;8.40;99.90;;;;;;5053086;28;20044;-71
2023/03/06 11:25:49;;;;;;;4.22;0.90;;;8.60;99.90;;;;;;5046192;28;20082;-71
2023/03/06 11:28:26;;;;;;;2.03;0.65;;;8.60;99.90;;;;;;5049232;28;20151;-71
2023/03/06 11:31:12;;;;;;;4.45;0.80;;;8.70;99.90;;;;;;5047338;28;20040;-71
2023/03/06 11:33:46;;;;;;;2.25;0.90;;;9.00;99.90;;;;;;5032809;28;20187;-71
2023/03/06 11:36:46;;;;;;;4.57;0.68;;;9.10;99.90;;;;;;5027400;28;20132;-70
2023/03/06 11:39:37;;;;;;;3.60;0.80;;;9.40;99.90;;;;;;5041872;28;20060;-70
2023/03/06 11:42:26;;;;;;;4.95;0.80;;;9.60;99.90;;;;;;5045758;28;20240;-70
2023/03/06 11:45:25;;;;;;;3.85;0.80;;;9.90;99.90;;;;;;5048706;28;20113;-70
2023/03/06 11:48:02;;;;;;;1.38;0.52;;;10.10;99.90;;;;;;5051145;28;20110;-70
2023/03/06 11:50:37;;;;;;;1.65;0.63;;;10.30;99.90;;;;;;5047269;28;20043;-70
2023/03/06 11:53:05;;;;;;;1.70;0.60;;;10.50;99.90;;;;;;5051658;28;22057;-70
2023/03/06 11:56:02;;;;;;;1.77;0.60;;;10.80;99.90;;;;;;5049178;28;20048;-70
2023/03/06 11:58:56;;;;;;;1.88;0.60;;;11.20;99.90;;;;;;5013925;28;20548;-70
2023/03/06 12:01:28;;;;;;;2.75;0.90;;;11.30;99.90;;;;;;5040022;28;20072;-70
2023/03/06 12:04:17;;;;;;;3.13;0.80;;;11.20;99.90;;;;;;5047372;28;20039;-70
2023/03/06 12:07:04;;;;;;;1.17;0.75;;;11.10;99.60;;;;;;5035122;28;20036;-70
2023/03/06 12:09:52;;;;;;;3.53;1.00;;;10.70;99.90;;;;;;5049343;28;20043;-70
2023/03/06 12:12:32;;;;;;;3.65;1.00;;;10.40;99.90;;;;;;5051908;28;20035;-70
2023/03/06 12:15:09;;;;;;;4.20;1.10;;;10.00;99.90;;;;;;5055023;28;20048;-70
2023/03/06 12:17:52;;;;;;;1.95;0.98;;;9.70;99.90;;;;;;5037371;28;20054;-70
2023/03/06 12:20:33;;;;;;;4.20;1.10;;;9.60;99.90;;;;;;5045678;28;20088;-70
2023/03/06 12:23:31;;;;;;;2.22;1.00;;;9.70;99.90;;;;;;5050822;28;20331;-70
2023/03/06 12:26:18;;;;;;;1.92;1.02;;;9.90;99.90;;;;;;5053803;28;20494;-70
2023/03/06 12:29:21;;;;;;;3.33;1.00;;;10.10;99.90;;;;;;5052580;28;20047;-70
2023/03/06 12:31:47;;;;;;;1.80;0.90;;;10.30;99.70;;;;;;5046320;28;20047;-70
2023/03/06 12:34:26;;;;;;;2.78;0.80;;;10.30;99.80;;;;;;5032736;28;20035;-70
2023/03/06 12:37:20;;;;;;;6.70;0.90;;;10.50;99.70;;;;;;5046529;28;20055;-70
2023/03/06 12:40:17;;;;;;;1.92;0.75;;;10.50;98.90;;;;;;5045562;28;20048;-70
2023/03/06 12:42:45;;;;;;;2.97;1.05;;;10.40;99.20;;;;;;5023789;28;20068;-70
2023/03/06 12:45:21;;;;;;;2.60;0.90;;;10.30;99.60;;;;;;5053657;28;20126;-70
2023/03/06 12:47:49;;;;;;;2.28;1.10;;;10.20;99.60;;;;;;5054876;28;20040;-70
2023/03/06 12:50:44;;;;;;;2.30;0.80;;;10.00;99.50;;;;;;5053967;28;20048;-70
2023/03/06 12:53:29;;;;;;;5.22;0.88;;;10.00;99.10;;;;;;5036814;28;20105;-70
2023/03/06 12:55:57;;;;;;;2.15;0.70;;;9.90;98.30;;;;;;5052789;28;20052;-70
2023/03/06 12:58:29;;;;;;;1.92;0.80;;;9.80;98.50;;;;;;5055588;28;20059;-70
2023/03/06 13:01:22;;;;;;;2.60;0.60;;;9.70;97.80;;;;;;5056878;28;20048;-70
2023/03/06 13:03:57;;;;;;;2.42;0.65;;;9.60;97.10;;;;;;5042106;28;20306;-70
2023/03/06 13:06:26;;;;;;;4.57;0.70;;;9.50;98.00;;;;;;5050871;28;20040;-70
2023/03/06 13:08:53;;;;;;;3.72;0.80;;;9.50;97.80;;;;;;5054945;28;20134;-70